sensor_id;sensor_type;location;lat;lon;timestamp;pressure;altitude;pressure_sealevel;temperature;humidity
68712;BME280;55690;51.566;19.198;2023-05-21T00:02:51;102359.73;;;18.20;93.74
68712;BME280;55690;51.566;19.198;2023-05-21T00:06:57;102350.88;;;18.05;94.62
68712;BME280;55690;51.566;19.198;2023-05-21T00:11:03;102354.38;;;18.07;95.05
68712;BME280;55690;51.566;19.198;2023-05-21T00:15:10;102345.62;;;18.02;94.92
68712;BME280;55690;51.566;19.198;2023-05-21T00:19:15;102341.36;;;17.98;95.32
68712;BME280;55690;51.566;19.198;2023-05-21T00:23:21;102342.23;;;17.99;94.75
68712;BME280;55690;51.566;19.198;2023-05-21T00:27:28;102350.81;;;17.83;95.05
68712;BME280;55690;51.566;19.198;2023-05-21T00:31:34;102350.57;;;17.86;94.49
68712;BME280;55690;51.566;19.198;2023-05-21T00:35:40;102350.70;;;17.84;93.91
68712;BME280;55690;51.566;19.198;2023-05-21T00:39:46;102345.08;;;17.86;92.98
68712;BME280;55690;51.566;19.198;2023-05-21T00:43:52;102339.37;;;18.00;92.25
68712;BME280;55690;51.566;19.198;2023-05-21T00:47:58;102342.23;;;17.99;91.08
68712;BME280;55690;51.566;19.198;2023-05-21T00:52:05;102351.80;;;17.82;92.22
68712;BME280;55690;51.566;19.198;2023-05-21T00:56:11;102346.72;;;17.53;93.31
68712;BME280;55690;51.566;19.198;2023-05-21T01:00:18;102345.24;;;17.60;91.97
68712;BME280;55690;51.566;19.198;2023-05-21T01:04:23;102346.67;;;17.66;92.18
68712;BME280;55690;51.566;19.198;2023-05-21T01:08:29;102341.50;;;17.61;92.10
68712;BME280;55690;51.566;19.198;2023-05-21T01:12:37;102338.23;;;17.56;92.33
68712;BME280;55690;51.566;19.198;2023-05-21T01:16:43;102331.87;;;17.56;91.84
68712;BME280;55690;51.566;19.198;2023-05-21T01:20:49;102329.95;;;17.45;91.89
68712;BME280;55690;51.566;19.198;2023-05-21T01:24:54;102321.34;;;17.74;90.28
68712;BME280;55690;51.566;19.198;2023-05-21T01:29:00;102325.84;;;17.86;89.32
68712;BME280;55690;51.566;19.198;2023-05-21T01:37:28;102321.59;;;17.47;90.24
68712;BME280;55690;51.566;19.198;2023-05-21T01:41:35;102324.68;;;17.31;90.85
68712;BME280;55690;51.566;19.198;2023-05-21T01:45:41;102325.03;;;17.26;91.54
68712;BME280;55690;51.566;19.198;2023-05-21T01:49:43;102306.63;;;17.51;89.68
68712;BME280;55690;51.566;19.198;2023-05-21T01:53:45;102309.61;;;17.48;88.88
68712;BME280;55690;51.566;19.198;2023-05-21T01:57:47;102324.85;;;17.17;90.80
68712;BME280;55690;51.566;19.198;2023-05-21T02:01:49;102313.88;;;17.17;90.58
68712;BME280;55690;51.566;19.198;2023-05-21T02:05:56;102315.63;;;17.18;89.76
68712;BME280;55690;51.566;19.198;2023-05-21T02:10:02;102313.88;;;17.17;89.68
68712;BME280;55690;51.566;19.198;2023-05-21T02:14:08;102300.03;;;17.18;90.25
68712;BME280;55690;51.566;19.198;2023-05-21T02:18:14;102304.59;;;17.07;90.55
68712;BME280;55690;51.566;19.198;2023-05-21T02:22:20;102307.52;;;17.16;89.63
68712;BME280;55690;51.566;19.198;2023-05-21T02:26:26;102286.66;;;16.66;90.20
68712;BME280;55690;51.566;19.198;2023-05-21T02:30:33;102299.45;;;16.78;90.58
68712;BME280;55690;51.566;19.198;2023-05-21T02:34:39;102306.81;;;16.78;90.37
68712;BME280;55690;51.566;19.198;2023-05-21T02:38:45;102295.24;;;17.09;88.79
68712;BME280;55690;51.566;19.198;2023-05-21T02:42:51;102297.58;;;17.03;89.24
68712;BME280;55690;51.566;19.198;2023-05-21T02:46:57;102297.05;;;16.98;89.09
68712;BME280;55690;51.566;19.198;2023-05-21T02:51:03;102295.16;;;16.87;88.88
68712;BME280;55690;51.566;19.198;2023-05-21T02:55:10;102285.52;;;16.81;89.39
68712;BME280;55690;51.566;19.198;2023-05-21T02:59:16;102291.64;;;16.85;89.39
68712;BME280;55690;51.566;19.198;2023-05-21T03:03:22;102285.52;;;16.81;89.21
68712;BME280;55690;51.566;19.198;2023-05-21T03:07:28;102289.59;;;16.76;87.84
68712;BME280;55690;51.566;19.198;2023-05-21T03:11:34;102289.52;;;16.65;87.84
68712;BME280;55690;51.566;19.198;2023-05-21T03:15:40;102285.90;;;16.64;87.75
68712;BME280;55690;51.566;19.198;2023-05-21T03:19:47;102282.35;;;16.62;87.94
68712;BME280;55690;51.566;19.198;2023-05-21T03:23:53;102282.70;;;16.70;88.42
68712;BME280;55690;51.566;19.198;2023-05-21T03:27:59;102289.07;;;16.58;89.00
68712;BME280;55690;51.566;19.198;2023-05-21T03:32:06;102278.97;;;16.58;88.86
68712;BME280;55690;51.566;19.198;2023-05-21T03:36:11;102283.45;;;16.96;87.59
68712;BME280;55690;51.566;19.198;2023-05-21T03:40:17;102279.84;;;16.59;88.86
68712;BME280;55690;51.566;19.198;2023-05-21T03:44:24;102280.26;;;16.42;89.69
68712;BME280;55690;51.566;19.198;2023-05-21T03:48:30;102285.22;;;16.73;88.53
68712;BME280;55690;51.566;19.198;2023-05-21T03:52:36;102281.55;;;16.85;87.99
68712;BME280;55690;51.566;19.198;2023-05-21T03:56:42;102288.70;;;16.99;87.87
68712;BME280;55690;51.566;19.198;2023-05-21T04:00:49;102281.32;;;16.88;88.41
68712;BME280;55690;51.566;19.198;2023-05-21T04:04:54;102282.13;;;16.78;88.72
68712;BME280;55690;51.566;19.198;2023-05-21T04:09:01;102287.84;;;16.75;88.95
68712;BME280;55690;51.566;19.198;2023-05-21T04:13:07;102273.70;;;16.92;88.80
68712;BME280;55690;51.566;19.198;2023-05-21T04:17:13;102274.86;;;17.36;86.58
68712;BME280;55690;51.566;19.198;2023-05-21T04:21:19;102278.29;;;17.50;86.14
68712;BME280;55690;51.566;19.198;2023-05-21T04:25:25;102277.41;;;17.50;86.02
68712;BME280;55690;51.566;19.198;2023-05-21T04:29:31;102271.25;;;17.35;86.18
68712;BME280;55690;51.566;19.198;2023-05-21T04:33:38;102270.75;;;17.65;86.59
68712;BME280;55690;51.566;19.198;2023-05-21T04:37:45;102273.38;;;17.89;85.81
68712;BME280;55690;51.566;19.198;2023-05-21T04:41:50;102271.02;;;17.95;84.76
68712;BME280;55690;51.566;19.198;2023-05-21T04:45:56;102260.63;;;18.33;83.90
68712;BME280;55690;51.566;19.198;2023-05-21T04:50:03;102269.13;;;18.41;84.65
68712;BME280;55690;51.566;19.198;2023-05-21T04:54:08;102259.73;;;18.54;82.70
68712;BME280;55690;51.566;19.198;2023-05-21T04:58:15;102262.82;;;18.72;82.01
68712;BME280;55690;51.566;19.198;2023-05-21T05:02:21;102261.85;;;19.05;83.48
68712;BME280;55690;51.566;19.198;2023-05-21T05:06:27;102259.98;;;19.06;79.90
68712;BME280;55690;51.566;19.198;2023-05-21T05:10:34;102260.64;;;19.19;79.53
68712;BME280;55690;51.566;19.198;2023-05-21T05:14:40;102255.17;;;19.60;79.83
68712;BME280;55690;51.566;19.198;2023-05-21T05:18:46;102253.89;;;19.65;78.42
68712;BME280;55690;51.566;19.198;2023-05-21T05:22:52;102260.68;;;19.60;75.75
68712;BME280;55690;51.566;19.198;2023-05-21T05:26:58;102261.63;;;20.01;75.07
68712;BME280;55690;51.566;19.198;2023-05-21T05:31:04;102255.84;;;20.35;75.41
68712;BME280;55690;51.566;19.198;2023-05-21T05:35:11;102239.34;;;20.54;74.24
68712;BME280;55690;51.566;19.198;2023-05-21T05:39:17;102255.84;;;21.42;73.68
68712;BME280;55690;51.566;19.198;2023-05-21T05:43:24;102241.87;;;20.96;70.83
68712;BME280;55690;51.566;19.198;2023-05-21T05:47:29;102251.47;;;21.30;70.79
68712;BME280;55690;51.566;19.198;2023-05-21T05:51:35;102250.07;;;21.82;70.64
68712;BME280;55690;51.566;19.198;2023-05-21T05:55:41;102242.73;;;22.38;69.90
68712;BME280;55690;51.566;19.198;2023-05-21T05:59:48;102244.02;;;22.61;69.44
68712;BME280;55690;51.566;19.198;2023-05-21T06:03:54;102243.95;;;22.80;68.49
68712;BME280;55690;51.566;19.198;2023-05-21T06:08:00;102240.80;;;22.66;65.56
68712;BME280;55690;51.566;19.198;2023-05-21T06:12:06;102241.48;;;23.13;67.49
68712;BME280;55690;51.566;19.198;2023-05-21T06:16:12;102245.99;;;22.96;64.62
68712;BME280;55690;51.566;19.198;2023-05-21T06:20:18;102240.70;;;23.03;64.67
68712;BME280;55690;51.566;19.198;2023-05-21T06:24:25;102232.55;;;23.88;64.05
68712;BME280;55690;51.566;19.198;2023-05-21T06:28:31;102230.10;;;23.85;63.07
68712;BME280;55690;51.566;19.198;2023-05-21T06:32:37;102229.71;;;24.06;63.18
68712;BME280;55690;51.566;19.198;2023-05-21T06:36:43;102235.79;;;23.76;61.01
68712;BME280;55690;51.566;19.198;2023-05-21T06:40:49;102235.27;;;24.40;60.82
68712;BME280;55690;51.566;19.198;2023-05-21T06:44:55;102233.91;;;25.11;61.25
68712;BME280;55690;51.566;19.198;2023-05-21T06:49:01;102235.63;;;25.44;60.28
68712;BME280;55690;51.566;19.198;2023-05-21T06:53:08;102230.92;;;25.77;58.25
68712;BME280;55690;51.566;19.198;2023-05-21T06:57:15;102231.09;;;25.84;57.78
68712;BME280;55690;51.566;19.198;2023-05-21T07:01:20;102227.82;;;25.40;56.11
68712;BME280;55690;51.566;19.198;2023-05-21T07:05:26;102224.11;;;25.96;58.31
68712;BME280;55690;51.566;19.198;2023-05-21T07:09:32;102228.57;;;26.05;57.45
68712;BME280;55690;51.566;19.198;2023-05-21T07:13:38;102226.10;;;26.18;56.38
68712;BME280;55690;51.566;19.198;2023-05-21T07:17:44;102223.77;;;27.00;56.81
68712;BME280;55690;51.566;19.198;2023-05-21T07:21:51;102213.09;;;26.50;55.34
68712;BME280;55690;51.566;19.198;2023-05-21T07:25:57;102225.66;;;26.77;54.06
68712;BME280;55690;51.566;19.198;2023-05-21T07:30:04;102224.05;;;26.04;53.81
68712;BME280;55690;51.566;19.198;2023-05-21T07:34:09;102215.43;;;26.69;54.42
68712;BME280;55690;51.566;19.198;2023-05-21T07:38:15;102232.20;;;26.14;55.28
68712;BME280;55690;51.566;19.198;2023-05-21T07:42:21;102221.88;;;26.39;55.04
68712;BME280;55690;51.566;19.198;2023-05-21T07:46:28;102218.91;;;26.40;55.16
68712;BME280;55690;51.566;19.198;2023-05-21T07:50:34;102225.88;;;26.67;55.45
68712;BME280;55690;51.566;19.198;2023-05-21T07:54:40;102224.22;;;27.12;53.70
68712;BME280;55690;51.566;19.198;2023-05-21T07:58:46;102214.57;;;26.38;52.26
68712;BME280;55690;51.566;19.198;2023-05-21T08:02:52;102232.55;;;26.58;52.88
68712;BME280;55690;51.566;19.198;2023-05-21T08:06:58;102229.03;;;26.25;52.27
68712;BME280;55690;51.566;19.198;2023-05-21T08:11:05;102228.71;;;26.59;52.44
68712;BME280;55690;51.566;19.198;2023-05-21T08:15:11;102223.10;;;26.67;52.24
68712;BME280;55690;51.566;19.198;2023-05-21T08:19:17;102216.56;;;26.83;52.35
68712;BME280;55690;51.566;19.198;2023-05-21T08:23:23;102217.34;;;26.69;51.81
68712;BME280;55690;51.566;19.198;2023-05-21T08:27:29;102215.84;;;27.12;51.69
68712;BME280;55690;51.566;19.198;2023-05-21T08:31:35;102215.70;;;26.51;51.85
68712;BME280;55690;51.566;19.198;2023-05-21T08:35:42;102221.91;;;26.23;52.11
68712;BME280;55690;51.566;19.198;2023-05-21T08:39:48;102216.87;;;25.46;51.87
68712;BME280;55690;51.566;19.198;2023-05-21T08:44:00;102214.86;;;26.43;54.44
68712;BME280;55690;51.566;19.198;2023-05-21T08:48:02;102205.15;;;26.93;53.38
68712;BME280;55690;51.566;19.198;2023-05-21T08:52:06;102214.38;;;26.70;53.01
68712;BME280;55690;51.566;19.198;2023-05-21T08:56:12;102200.76;;;26.44;52.34
68712;BME280;55690;51.566;19.198;2023-05-21T09:00:19;102208.16;;;26.21;52.88
68712;BME280;55690;51.566;19.198;2023-05-21T09:04:25;102219.27;;;26.68;53.35
68712;BME280;55690;51.566;19.198;2023-05-21T09:08:34;102208.59;;;27.03;54.01
68712;BME280;55690;51.566;19.198;2023-05-21T09:12:37;102208.43;;;27.42;54.25
68712;BME280;55690;51.566;19.198;2023-05-21T09:16:45;102207.13;;;27.30;53.99
68712;BME280;55690;51.566;19.198;2023-05-21T09:20:49;102203.46;;;27.14;51.82
68712;BME280;55690;51.566;19.198;2023-05-21T09:24:55;102196.78;;;27.61;52.07
68712;BME280;55690;51.566;19.198;2023-05-21T09:29:02;102199.69;;;26.06;51.51
68712;BME280;55690;51.566;19.198;2023-05-21T09:33:08;102191.13;;;27.09;52.01
68712;BME280;55690;51.566;19.198;2023-05-21T09:37:15;102189.08;;;27.63;51.59
68712;BME280;55690;51.566;19.198;2023-05-21T09:41:30;102189.69;;;27.50;52.47
68712;BME280;55690;51.566;19.198;2023-05-21T09:45:33;102193.91;;;27.69;52.26
68712;BME280;55690;51.566;19.198;2023-05-21T09:49:36;102196.66;;;27.32;52.40
68712;BME280;55690;51.566;19.198;2023-05-21T09:53:48;102191.77;;;27.86;51.55
68712;BME280;55690;51.566;19.198;2023-05-21T09:57:52;102191.53;;;27.58;52.53
68712;BME280;55690;51.566;19.198;2023-05-21T10:01:53;102184.93;;;27.36;51.77
68712;BME280;55690;51.566;19.198;2023-05-21T10:05:58;102192.36;;;27.29;51.77
68712;BME280;55690;51.566;19.198;2023-05-21T10:10:05;102190.32;;;27.61;52.48
68712;BME280;55690;51.566;19.198;2023-05-21T10:14:15;102175.60;;;28.11;52.92
68712;BME280;55690;51.566;19.198;2023-05-21T10:18:21;102172.95;;;27.50;51.25
68712;BME280;55690;51.566;19.198;2023-05-21T10:22:24;102171.05;;;27.13;51.14
68712;BME280;55690;51.566;19.198;2023-05-21T10:26:29;102167.75;;;27.47;52.07
68712;BME280;55690;51.566;19.198;2023-05-21T10:30:35;102162.49;;;27.15;51.14
68712;BME280;55690;51.566;19.198;2023-05-21T10:34:44;102153.84;;;27.77;51.11
68712;BME280;55690;51.566;19.198;2023-05-21T10:38:47;102161.50;;;27.08;50.18
68712;BME280;55690;51.566;19.198;2023-05-21T10:51:28;102150.23;;;27.01;51.37
68712;BME280;55690;51.566;19.198;2023-05-21T10:55:46;102143.47;;;27.71;51.50
68712;BME280;55690;51.566;19.198;2023-05-21T10:59:47;102134.70;;;27.59;50.69
68712;BME280;55690;51.566;19.198;2023-05-21T11:03:49;102132.02;;;27.66;49.99
68712;BME280;55690;51.566;19.198;2023-05-21T11:07:57;102131.61;;;27.83;48.70
68712;BME280;55690;51.566;19.198;2023-05-21T11:12:02;102133.50;;;27.54;48.63
68712;BME280;55690;51.566;19.198;2023-05-21T11:16:05;102131.84;;;28.18;50.74
68712;BME280;55690;51.566;19.198;2023-05-21T11:20:11;102132.59;;;27.61;49.34
68712;BME280;55690;51.566;19.198;2023-05-21T11:24:18;102133.81;;;27.73;49.52
68712;BME280;55690;51.566;19.198;2023-05-21T11:32:39;102128.20;;;28.32;49.75
68712;BME280;55690;51.566;19.198;2023-05-21T11:36:48;102132.56;;;28.05;49.55
68712;BME280;55690;51.566;19.198;2023-05-21T11:40:52;102123.00;;;28.29;50.41
68712;BME280;55690;51.566;19.198;2023-05-21T11:44:56;102127.37;;;27.73;50.10
68712;BME280;55690;51.566;19.198;2023-05-21T11:48:59;102119.26;;;27.48;49.73
68712;BME280;55690;51.566;19.198;2023-05-21T11:53:01;102126.21;;;27.82;51.31
68712;BME280;55690;51.566;19.198;2023-05-21T11:57:06;102120.72;;;28.03;50.85
68712;BME280;55690;51.566;19.198;2023-05-21T12:05:21;102122.60;;;28.32;49.83
68712;BME280;55690;51.566;19.198;2023-05-21T12:09:23;102094.03;;;28.52;49.78
68712;BME280;55690;51.566;19.198;2023-05-21T12:13:25;102117.34;;;29.01;49.81
68712;BME280;55690;51.566;19.198;2023-05-21T12:17:28;102107.88;;;29.02;49.42
68712;BME280;55690;51.566;19.198;2023-05-21T12:21:32;102102.13;;;29.38;49.27
68712;BME280;55690;51.566;19.198;2023-05-21T12:25:34;102110.27;;;29.33;49.59
68712;BME280;55690;51.566;19.198;2023-05-21T12:29:36;102091.89;;;29.45;48.32
68712;BME280;55690;51.566;19.198;2023-05-21T12:33:39;102096.20;;;28.77;48.17
68712;BME280;55690;51.566;19.198;2023-05-21T12:37:45;102104.77;;;29.19;48.40
68712;BME280;55690;51.566;19.198;2023-05-21T12:41:53;102100.91;;;29.48;48.83
68712;BME280;55690;51.566;19.198;2023-05-21T12:45:57;102097.18;;;29.12;47.72
68712;BME280;55690;51.566;19.198;2023-05-21T12:50:07;102091.45;;;29.21;48.85
68712;BME280;55690;51.566;19.198;2023-05-21T12:54:13;102086.20;;;29.11;49.01
68712;BME280;55690;51.566;19.198;2023-05-21T12:58:20;102083.83;;;29.70;49.49
68712;BME280;55690;51.566;19.198;2023-05-21T13:02:26;102088.80;;;29.40;50.64
68712;BME280;55690;51.566;19.198;2023-05-21T13:06:28;102099.02;;;29.27;50.46
68712;BME280;55690;51.566;19.198;2023-05-21T13:10:34;102095.80;;;28.80;49.42
68712;BME280;55690;51.566;19.198;2023-05-21T13:14:40;102086.51;;;29.23;50.75
68712;BME280;55690;51.566;19.198;2023-05-21T13:18:46;102076.70;;;28.05;49.86
68712;BME280;55690;51.566;19.198;2023-05-21T13:22:52;102079.71;;;28.40;50.65
68712;BME280;55690;51.566;19.198;2023-05-21T13:26:58;102074.84;;;28.27;50.54
68712;BME280;55690;51.566;19.198;2023-05-21T13:31:05;102070.90;;;28.22;50.65
68712;BME280;55690;51.566;19.198;2023-05-21T13:35:11;102079.51;;;28.05;49.67
68712;BME280;55690;51.566;19.198;2023-05-21T13:39:17;102077.91;;;28.18;50.81
68712;BME280;55690;51.566;19.198;2023-05-21T13:43:24;102063.65;;;27.76;50.37
68712;BME280;55690;51.566;19.198;2023-05-21T13:47:29;102066.86;;;27.59;49.84
68712;BME280;55690;51.566;19.198;2023-05-21T13:51:35;102064.50;;;27.92;49.71
68712;BME280;55690;51.566;19.198;2023-05-21T13:55:42;102052.95;;;27.95;50.15
68712;BME280;55690;51.566;19.198;2023-05-21T13:59:49;102060.45;;;27.94;49.71
68712;BME280;55690;51.566;19.198;2023-05-21T14:03:54;102055.17;;;28.21;50.17
68712;BME280;55690;51.566;19.198;2023-05-21T14:08:00;102051.69;;;28.33;50.48
68712;BME280;55690;51.566;19.198;2023-05-21T14:12:07;102052.64;;;28.83;50.94
68712;BME280;55690;51.566;19.198;2023-05-21T14:16:12;102048.84;;;28.48;50.80
68712;BME280;55690;51.566;19.198;2023-05-21T14:20:19;102053.34;;;27.92;50.23
68712;BME280;55690;51.566;19.198;2023-05-21T14:24:32;102042.59;;;28.46;51.20
68712;BME280;55690;51.566;19.198;2023-05-21T14:28:34;102054.70;;;28.17;51.32
68712;BME280;55690;51.566;19.198;2023-05-21T14:32:37;102051.88;;;27.96;50.87
68712;BME280;55690;51.566;19.198;2023-05-21T14:36:43;102044.77;;;27.93;49.96
68712;BME280;55690;51.566;19.198;2023-05-21T14:40:49;102032.67;;;27.42;50.89
68712;BME280;55690;51.566;19.198;2023-05-21T14:44:55;102034.69;;;27.33;51.40
68712;BME280;55690;51.566;19.198;2023-05-21T14:49:01;102027.92;;;27.87;51.25
68712;BME280;55690;51.566;19.198;2023-05-21T14:53:09;102037.67;;;27.46;51.25
68712;BME280;55690;51.566;19.198;2023-05-21T14:57:14;102026.15;;;27.20;50.83
68712;BME280;55690;51.566;19.198;2023-05-21T15:01:20;102025.00;;;27.29;50.98
68712;BME280;55690;51.566;19.198;2023-05-21T15:05:27;102025.45;;;27.03;50.60
68712;BME280;55690;51.566;19.198;2023-05-21T15:09:32;102021.03;;;27.09;50.75
68712;BME280;55690;51.566;19.198;2023-05-21T15:13:38;102021.27;;;26.84;51.20
68712;BME280;55690;51.566;19.198;2023-05-21T15:17:45;102023.53;;;27.33;51.60
68712;BME280;55690;51.566;19.198;2023-05-21T15:21:51;102026.44;;;26.88;51.68
68712;BME280;55690;51.566;19.198;2023-05-21T15:25:57;102027.36;;;26.65;51.62
68712;BME280;55690;51.566;19.198;2023-05-21T15:30:04;102022.17;;;27.00;51.79
68712;BME280;55690;51.566;19.198;2023-05-21T15:34:09;102029.53;;;26.93;52.60
68712;BME280;55690;51.566;19.198;2023-05-21T15:38:15;102022.84;;;26.64;51.97
68712;BME280;55690;51.566;19.198;2023-05-21T15:42:21;102028.77;;;26.84;52.45
68712;BME280;55690;51.566;19.198;2023-05-21T15:46:28;102007.32;;;26.47;52.26
68712;BME280;55690;51.566;19.198;2023-05-21T15:50:34;102019.94;;;26.58;52.56
68712;BME280;55690;51.566;19.198;2023-05-21T15:54:40;102016.72;;;26.46;52.98
68712;BME280;55690;51.566;19.198;2023-05-21T15:58:46;102026.44;;;26.27;53.75
68712;BME280;55690;51.566;19.198;2023-05-21T16:02:52;102023.77;;;25.41;53.72
68712;BME280;55690;51.566;19.198;2023-05-21T16:06:58;102019.41;;;25.85;53.62
68712;BME280;55690;51.566;19.198;2023-05-21T16:11:05;102023.81;;;25.72;53.90
68712;BME280;55690;51.566;19.198;2023-05-21T16:15:11;102029.23;;;25.57;53.58
68712;BME280;55690;51.566;19.198;2023-05-21T16:19:17;102023.95;;;25.31;53.75
68712;BME280;55690;51.566;19.198;2023-05-21T16:23:23;102025.59;;;25.65;53.87
68712;BME280;55690;51.566;19.198;2023-05-21T16:27:29;102023.20;;;25.53;54.41
68712;BME280;55690;51.566;19.198;2023-05-21T16:31:35;102017.93;;;25.59;54.28
68712;BME280;55690;51.566;19.198;2023-05-21T16:35:42;102020.44;;;25.45;54.64
68712;BME280;55690;51.566;19.198;2023-05-21T16:39:48;102014.77;;;25.23;54.77
68712;BME280;55690;51.566;19.198;2023-05-21T16:43:54;102016.06;;;25.04;54.97
68712;BME280;55690;51.566;19.198;2023-05-21T16:48:00;102027.13;;;25.20;55.84
68712;BME280;55690;51.566;19.198;2023-05-21T16:52:06;102026.66;;;25.08;55.58
68712;BME280;55690;51.566;19.198;2023-05-21T16:56:12;102021.28;;;24.99;55.39
68712;BME280;55690;51.566;19.198;2023-05-21T17:00:19;102028.55;;;24.92;55.73
68712;BME280;55690;51.566;19.198;2023-05-21T17:04:25;102023.35;;;24.88;55.32
68712;BME280;55690;51.566;19.198;2023-05-21T17:08:31;102030.64;;;24.81;55.92
68712;BME280;55690;51.566;19.198;2023-05-21T17:12:37;102029.30;;;24.69;56.14
68712;BME280;55690;51.566;19.198;2023-05-21T17:16:43;102033.10;;;24.60;56.68
68712;BME280;55690;51.566;19.198;2023-05-21T17:20:49;102026.99;;;24.24;56.94
68712;BME280;55690;51.566;19.198;2023-05-21T17:24:56;102026.66;;;24.35;56.50
68712;BME280;55690;51.566;19.198;2023-05-21T17:29:02;102023.69;;;24.20;56.58
68712;BME280;55690;51.566;19.198;2023-05-21T17:33:08;102017.93;;;24.06;56.31
68712;BME280;55690;51.566;19.198;2023-05-21T17:37:14;102029.42;;;23.61;57.39
68712;BME280;55690;51.566;19.198;2023-05-21T17:41:20;102033.60;;;23.65;57.36
68712;BME280;55690;51.566;19.198;2023-05-21T17:45:26;102021.98;;;23.61;57.85
68712;BME280;55690;51.566;19.198;2023-05-21T17:49:32;102023.71;;;23.62;58.03
68712;BME280;55690;51.566;19.198;2023-05-21T17:53:39;102017.13;;;23.63;57.25
68712;BME280;55690;51.566;19.198;2023-05-21T17:57:45;102014.40;;;23.37;58.14
68712;BME280;55690;51.566;19.198;2023-05-21T18:01:51;102014.95;;;23.49;58.08
68712;BME280;55690;51.566;19.198;2023-05-21T18:05:57;102016.43;;;23.27;58.44
68712;BME280;55690;51.566;19.198;2023-05-21T18:10:04;102023.34;;;22.97;58.90
68712;BME280;55690;51.566;19.198;2023-05-21T18:14:10;102024.18;;;22.89;58.90
68712;BME280;55690;51.566;19.198;2023-05-21T18:18:16;102017.63;;;23.25;58.73
68712;BME280;55690;51.566;19.198;2023-05-21T18:22:22;102023.99;;;23.17;59.34
68712;BME280;55690;51.566;19.198;2023-05-21T18:26:28;102035.88;;;23.09;58.53
68712;BME280;55690;51.566;19.198;2023-05-21T18:30:35;102033.13;;;22.83;59.95
68712;BME280;55690;51.566;19.198;2023-05-21T18:34:41;102038.92;;;22.98;59.70
68712;BME280;55690;51.566;19.198;2023-05-21T18:38:55;102048.23;;;22.71;60.13
68712;BME280;55690;51.566;19.198;2023-05-21T18:43:01;102042.63;;;22.81;61.46
68712;BME280;55690;51.566;19.198;2023-05-21T18:47:07;102053.13;;;22.77;61.09
68712;BME280;55690;51.566;19.198;2023-05-21T18:51:13;102046.88;;;22.75;60.89
68712;BME280;55690;51.566;19.198;2023-05-21T18:55:19;102056.16;;;22.66;62.22
68712;BME280;55690;51.566;19.198;2023-05-21T18:59:27;102057.77;;;22.51;62.50
68712;BME280;55690;51.566;19.198;2023-05-21T19:03:32;102074.29;;;22.25;62.26
68712;BME280;55690;51.566;19.198;2023-05-21T19:07:38;102075.09;;;21.90;63.82
68712;BME280;55690;51.566;19.198;2023-05-21T19:11:44;102072.30;;;21.90;62.79
68712;BME280;55690;51.566;19.198;2023-05-21T19:15:50;102070.68;;;21.70;63.56
68712;BME280;55690;51.566;19.198;2023-05-21T19:19:56;102073.44;;;21.70;63.81
68712;BME280;55690;51.566;19.198;2023-05-21T19:24:03;102082.91;;;21.67;64.04
68712;BME280;55690;51.566;19.198;2023-05-21T19:28:09;102080.23;;;21.57;64.31
68712;BME280;55690;51.566;19.198;2023-05-21T19:32:15;102061.97;;;21.37;66.44
68712;BME280;55690;51.566;19.198;2023-05-21T19:36:21;102070.98;;;21.39;65.79
68712;BME280;55690;51.566;19.198;2023-05-21T19:40:28;102083.36;;;21.35;65.75
68712;BME280;55690;51.566;19.198;2023-05-21T19:44:34;102069.59;;;21.16;68.23
68712;BME280;55690;51.566;19.198;2023-05-21T19:48:39;102072.52;;;21.05;68.22
68712;BME280;55690;51.566;19.198;2023-05-21T19:52:46;102069.34;;;21.00;66.84
68712;BME280;55690;51.566;19.198;2023-05-21T19:56:52;102065.18;;;20.76;66.64
68712;BME280;55690;51.566;19.198;2023-05-21T20:00:58;102063.01;;;20.51;68.42
68712;BME280;55690;51.566;19.198;2023-05-21T20:05:08;102059.80;;;20.46;69.32
68712;BME280;55690;51.566;19.198;2023-05-21T20:09:10;102058.07;;;20.45;68.96
68712;BME280;55690;51.566;19.198;2023-05-21T20:13:16;102053.87;;;20.50;67.49
68712;BME280;55690;51.566;19.198;2023-05-21T20:17:23;102050.94;;;20.23;70.39
68712;BME280;55690;51.566;19.198;2023-05-21T20:21:29;102053.11;;;20.19;69.23
68712;BME280;55690;51.566;19.198;2023-05-21T20:25:35;102052.39;;;20.27;68.91
68712;BME280;55690;51.566;19.198;2023-05-21T20:29:41;102053.99;;;20.30;69.67
68712;BME280;55690;51.566;19.198;2023-05-21T20:33:47;102056.73;;;20.10;70.01
68712;BME280;55690;51.566;19.198;2023-05-21T20:37:53;102058.02;;;19.87;71.19
68712;BME280;55690;51.566;19.198;2023-05-21T20:42:00;102055.93;;;19.70;71.34
68712;BME280;55690;51.566;19.198;2023-05-21T20:46:06;102052.41;;;19.58;71.50
68712;BME280;55690;51.566;19.198;2023-05-21T20:50:12;102051.81;;;19.54;71.97
68712;BME280;55690;51.566;19.198;2023-05-21T20:54:18;102054.39;;;19.46;71.99
68712;BME280;55690;51.566;19.198;2023-05-21T20:58:24;102047.73;;;19.49;71.26
68712;BME280;55690;51.566;19.198;2023-05-21T21:02:30;102048.14;;;19.44;70.69
68712;BME280;55690;51.566;19.198;2023-05-21T21:06:37;102045.80;;;19.40;70.29
68712;BME280;55690;51.566;19.198;2023-05-21T21:10:43;102051.56;;;19.06;72.05
68712;BME280;55690;51.566;19.198;2023-05-21T21:14:49;102060.06;;;18.93;72.92
68712;BME280;55690;51.566;19.198;2023-05-21T21:18:55;102052.89;;;18.81;71.72
68712;BME280;55690;51.566;19.198;2023-05-21T21:23:01;102060.94;;;18.73;71.88
68712;BME280;55690;51.566;19.198;2023-05-21T21:27:07;102058.46;;;18.91;71.09
68712;BME280;55690;51.566;19.198;2023-05-21T21:31:14;102060.00;;;18.84;71.29